Main page
METAR-TAF:

METAR-TAF

Airports :

Nador International Airport

Nador, Morocco

latitude: 34-59-20N, longitude: 003-01-42W, elevation: 175 m

Current weather observation

The report was made 1 hour and 5 minutes ago, at 03:00 UTC
Wind 1 kt from the North/Northeast
Temperature 13°C
Humidity 88%
Pressure 1025 hPa
Visibility: 6000 m
Few clouds at a height of 1000 ft
Scattered clouds at a height of 1800 ft

METAR: GMMW 210300Z 02001KT 6000 FEW010 SCT018 13/11 Q1025 NOSIG

Time: 05:05 (04:05 UTC)

Forecast

The report was made 5 hours and 5 minutes ago, at 23:00 UTC
Forecast valid from 21 at 00 UTC to 22 at 06 UTC
Wind 2 kt from variable directions
Visibility: 2000 m
Few clouds at a height of 1000 ft
Scattered clouds at a height of 1800 ft
mist
Becoming
from 21 at 06 UTC to 21 at 08 UTC
Visibility: 8000 m

TAF: GMMW 202300Z 2100/2206 VRB02KT 2000 BR FEW010 SCT018 BECMG 2106/2108 8000 NSW NSC

Weather observations and forecasts of more than 4000 airports (METAR and TAF reports).

The available stations are represented by yellow and red dots on the map.

Hover mouse over dot to see the name of the station.

Then click to see weather observations and forecasts.

To change the map : click on the green buttons with a black cross to zoom in, on the green button with a dash to zoom out, or on the green arrows for adjacent maps.


METAR-TAF: